Time;durP1;ratioP1;P1;durP2;ratioP2;P2;SDS_P1;SDS_P2;PMS_P1;PMS_P2;Temp;Humidity;BMP_temperature;BMP_pressure;BME280_temperature;BME280_humidity;BME280_pressure;Samples;Min_cycle;Max_cycle;Signal;HPM_P1;HPM_P2
2021/12/09 00:01:46;;;;;;;70.57;35.13;;;-0.30;99.90;;;;;;5060398;28;20032;-59
2021/12/09 00:04:14;;;;;;;62.65;35.03;;;-0.20;99.90;;;;;;5053011;28;20060;-59
2021/12/09 00:06:43;;;;;;;62.85;33.35;;;-0.20;99.90;;;;;;5053485;28;20120;-59
2021/12/09 00:09:19;;;;;;;62.28;34.72;;;-0.20;99.90;;;;;;5053826;28;20029;-59
2021/12/09 00:11:47;;;;;;;59.97;34.50;;;-0.20;99.90;;;;;;5050676;28;20588;-59
2021/12/09 00:14:16;;;;;;;62.00;33.67;;;-0.20;99.90;;;;;;5050294;28;20068;-59
2021/12/09 00:16:43;;;;;;;60.08;34.45;;;-0.10;99.90;;;;;;5050945;28;20369;-59
2021/12/09 00:19:09;;;;;;;62.85;35.10;;;-0.10;99.90;;;;;;5065615;28;20024;-59
2021/12/09 00:21:35;;;;;;;64.70;35.47;;;-0.20;99.90;;;;;;5056619;28;20218;-59
2021/12/09 00:24:00;;;;;;;71.90;38.70;;;-0.20;99.90;;;;;;5050254;28;20021;-59
2021/12/09 00:26:26;;;;;;;68.43;37.65;;;-0.20;99.90;;;;;;5051644;28;20096;-59
2021/12/09 00:28:52;;;;;;;63.35;36.58;;;-0.20;99.90;;;;;;5058168;28;20693;-59
2021/12/09 00:31:18;;;;;;;66.63;37.33;;;-0.20;99.90;;;;;;5049801;28;20029;-59
2021/12/09 00:33:46;;;;;;;69.57;39.20;;;-0.30;99.90;;;;;;5050342;28;20028;-59
2021/12/09 00:36:16;;;;;;;72.68;38.13;;;-0.30;99.90;;;;;;5050009;28;20017;-59
2021/12/09 00:38:42;;;;;;;70.47;37.60;;;-0.40;99.90;;;;;;5057632;28;20522;-59
2021/12/09 00:41:11;;;;;;;76.93;38.70;;;-0.30;99.90;;;;;;5060726;28;20068;-59
2021/12/09 00:43:37;;;;;;;71.45;38.42;;;-0.30;99.90;;;;;;5070486;28;20059;-59
2021/12/09 00:46:04;;;;;;;67.63;36.83;;;-0.30;99.90;;;;;;5070257;28;20064;-59
2021/12/09 00:48:31;;;;;;;65.32;35.67;;;-0.30;99.90;;;;;;5060895;28;20029;-59
2021/12/09 00:50:58;;;;;;;66.38;38.78;;;-0.30;99.90;;;;;;5049089;28;20479;-59
2021/12/09 00:53:24;;;;;;;105.35;52.88;;;-0.30;99.90;;;;;;5066766;28;20506;-59
2021/12/09 00:55:50;;;;;;;69.80;37.05;;;-0.20;99.90;;;;;;5070452;28;20025;-59
2021/12/09 00:58:16;;;;;;;59.83;34.33;;;-0.20;99.90;;;;;;5060071;28;20025;-59
2021/12/09 01:00:42;;;;;;;82.10;42.80;;;-0.20;99.90;;;;;;5070488;28;20020;-59
2021/12/09 01:03:08;;;;;;;84.43;40.75;;;-0.10;99.90;;;;;;5068240;28;20166;-59
2021/12/09 01:05:34;;;;;;;56.75;33.80;;;-0.10;99.90;;;;;;5068358;28;20088;-59
2021/12/09 01:07:59;;;;;;;101.82;48.53;;;-0.10;99.90;;;;;;5065510;28;20025;-59
2021/12/09 01:10:25;;;;;;;55.17;31.60;;;-0.10;99.90;;;;;;5052626;28;20037;-59
2021/12/09 01:12:52;;;;;;;61.80;32.63;;;0.00;99.90;;;;;;5070185;28;20037;-59
2021/12/09 01:15:19;;;;;;;51.13;30.00;;;0.10;99.90;;;;;;5051582;28;20059;-59
2021/12/09 01:17:46;;;;;;;149.00;56.47;;;0.10;99.90;;;;;;5059499;28;20025;-59
2021/12/09 01:20:14;;;;;;;122.72;54.22;;;0.20;99.90;;;;;;5069630;28;20070;-59
2021/12/09 01:22:42;;;;;;;68.20;37.42;;;0.20;99.90;;;;;;5068374;28;20153;-59
2021/12/09 01:25:14;;;;;;;194.88;79.07;;;0.10;99.90;;;;;;5066577;28;20044;-59
2021/12/09 01:27:43;;;;;;;103.70;46.22;;;0.10;99.90;;;;;;5051473;28;20167;-59
2021/12/09 01:30:15;;;;;;;186.07;73.78;;;0.00;99.90;;;;;;5067057;28;20029;-59
2021/12/09 01:32:49;;;;;;;65.50;36.13;;;0.10;99.90;;;;;;5059110;28;20029;-59
2021/12/09 01:35:17;;;;;;;61.72;34.42;;;0.10;99.90;;;;;;5050784;28;20032;-59
2021/12/09 01:37:44;;;;;;;140.02;56.15;;;0.20;99.90;;;;;;5052833;28;20562;-59
2021/12/09 01:40:10;;;;;;;72.78;36.88;;;0.10;99.90;;;;;;5062864;28;20091;-59
2021/12/09 01:42:36;;;;;;;93.43;45.90;;;0.00;99.90;;;;;;5058711;28;20032;-59
2021/12/09 01:45:05;;;;;;;73.53;38.70;;;0.00;99.90;;;;;;5051349;28;20423;-59
2021/12/09 01:47:31;;;;;;;66.25;36.72;;;0.00;99.90;;;;;;5059653;28;20429;-59
2021/12/09 01:49:58;;;;;;;76.47;39.35;;;0.20;99.90;;;;;;5070977;28;20036;-59
2021/12/09 01:52:24;;;;;;;86.13;42.67;;;0.20;99.90;;;;;;5065099;28;20027;-59
2021/12/09 01:54:50;;;;;;;57.90;34.33;;;0.10;99.90;;;;;;5051123;28;20032;-59
2021/12/09 01:57:16;;;;;;;134.90;54.47;;;0.10;99.90;;;;;;5050881;28;20436;-59
2021/12/09 01:59:42;;;;;;;98.82;46.80;;;0.00;99.90;;;;;;5050973;28;20112;-59
2021/12/09 02:02:07;;;;;;;66.15;37.95;;;0.00;99.90;;;;;;5051002;28;20042;-59
2021/12/09 02:04:33;;;;;;;61.72;36.13;;;0.10;99.90;;;;;;5067226;28;20024;-59
2021/12/09 02:06:59;;;;;;;70.55;40.30;;;0.20;99.90;;;;;;5051020;28;20567;-59
2021/12/09 02:09:25;;;;;;;70.32;36.83;;;0.20;99.90;;;;;;5048602;28;20296;-59
2021/12/09 02:11:51;;;;;;;64.22;35.97;;;0.30;99.90;;;;;;5053578;28;20049;-59
2021/12/09 02:14:16;;;;;;;66.20;37.30;;;0.20;99.90;;;;;;5065631;28;20052;-59
2021/12/09 02:16:42;;;;;;;64.47;36.75;;;0.20;99.90;;;;;;5053944;28;20383;-59
2021/12/09 02:19:11;;;;;;;61.08;35.95;;;0.20;99.90;;;;;;5054417;28;20017;-59
2021/12/09 02:21:37;;;;;;;63.78;35.42;;;0.10;99.90;;;;;;5056385;28;20379;-59
2021/12/09 02:24:09;;;;;;;62.28;35.80;;;0.10;99.90;;;;;;5073197;28;20036;-59
2021/12/09 02:26:39;;;;;;;66.65;37.58;;;0.10;99.90;;;;;;5071864;28;20078;-59
2021/12/09 02:29:08;;;;;;;67.32;38.78;;;0.10;99.90;;;;;;5072096;28;20089;-59
2021/12/09 02:31:35;;;;;;;66.90;35.28;;;0.00;99.90;;;;;;5071380;28;20583;-59
2021/12/09 02:34:01;;;;;;;63.05;36.35;;;0.00;99.90;;;;;;5054903;28;20536;-59
2021/12/09 02:36:30;;;;;;;61.58;35.95;;;0.00;99.90;;;;;;5073401;28;20025;-59
2021/12/09 02:38:56;;;;;;;66.85;37.30;;;0.00;99.90;;;;;;5073700;28;20384;-59
2021/12/09 02:41:25;;;;;;;63.85;34.40;;;0.00;99.90;;;;;;5072789;28;20028;-59
2021/12/09 02:43:55;;;;;;;61.30;35.60;;;0.00;99.90;;;;;;5058578;28;20025;-59
2021/12/09 02:46:23;;;;;;;94.75;49.38;;;0.00;99.90;;;;;;5072318;28;20029;-59
2021/12/09 02:48:49;;;;;;;111.25;56.35;;;0.00;99.90;;;;;;5072486;28;20035;-59
2021/12/09 02:51:15;;;;;;;82.40;44.40;;;0.00;99.90;;;;;;5072160;28;20036;-59
2021/12/09 02:53:41;;;;;;;86.15;45.33;;;0.00;99.90;;;;;;5053271;28;20041;-59
2021/12/09 02:56:07;;;;;;;67.70;38.75;;;0.00;99.90;;;;;;5052359;28;20516;-59
2021/12/09 02:58:33;;;;;;;69.70;39.00;;;0.10;99.90;;;;;;5071378;28;20398;-59
2021/12/09 03:01:01;;;;;;;64.15;36.92;;;0.10;99.90;;;;;;5056877;28;20420;-59
2021/12/09 03:03:28;;;;;;;64.47;36.97;;;0.10;99.90;;;;;;5055561;28;20017;-59
2021/12/09 03:05:58;;;;;;;62.70;38.10;;;0.10;99.90;;;;;;5057241;28;20027;-59
2021/12/09 03:08:33;;;;;;;66.28;36.83;;;0.00;99.90;;;;;;5068772;28;20057;-59
2021/12/09 03:11:02;;;;;;;65.72;35.95;;;0.00;99.90;;;;;;5060233;28;20029;-59
2021/12/09 03:13:28;;;;;;;65.28;36.17;;;0.00;99.90;;;;;;5072169;28;20040;-59
2021/12/09 03:15:53;;;;;;;66.57;38.28;;;-0.10;99.90;;;;;;5057409;28;20083;-59
2021/12/09 03:18:19;;;;;;;71.35;39.70;;;-0.20;99.90;;;;;;5053161;28;20087;-59
2021/12/09 03:20:45;;;;;;;76.18;41.55;;;-0.10;99.90;;;;;;5052860;28;20021;-59
2021/12/09 03:23:10;;;;;;;67.82;38.88;;;-0.10;99.90;;;;;;5067093;28;20370;-59
2021/12/09 03:25:36;;;;;;;66.03;37.55;;;-0.10;99.90;;;;;;5063712;28;20116;-59
2021/12/09 03:28:02;;;;;;;61.10;37.72;;;-0.10;99.90;;;;;;5052920;28;20124;-59
2021/12/09 03:30:27;;;;;;;65.40;36.60;;;-0.10;99.90;;;;;;5053135;28;20028;-59
2021/12/09 03:32:54;;;;;;;71.05;38.67;;;-0.10;99.90;;;;;;5052856;28;20072;-59
2021/12/09 03:35:20;;;;;;;70.47;37.40;;;-0.10;99.90;;;;;;5059242;28;20024;-59
2021/12/09 03:37:45;;;;;;;68.05;37.97;;;-0.10;99.90;;;;;;5070789;28;20074;-59
2021/12/09 03:40:12;;;;;;;63.22;36.80;;;-0.10;99.90;;;;;;5065781;28;20048;-59
2021/12/09 03:42:39;;;;;;;61.50;33.78;;;-0.10;99.90;;;;;;5058304;28;20009;-59
2021/12/09 03:45:06;;;;;;;54.17;32.58;;;-0.10;99.90;;;;;;5067982;28;20029;-59
2021/12/09 03:47:33;;;;;;;56.60;36.50;;;-0.10;99.90;;;;;;5060187;28;20157;-59
2021/12/09 03:49:59;;;;;;;55.80;33.25;;;-0.10;99.90;;;;;;5052402;28;20361;-59
2021/12/09 03:52:26;;;;;;;57.85;34.80;;;-0.10;99.90;;;;;;5052463;28;20037;-59
2021/12/09 03:54:52;;;;;;;61.78;33.80;;;-0.10;99.90;;;;;;5053611;28;20449;-59
2021/12/09 03:57:19;;;;;;;61.58;36.35;;;-0.10;99.90;;;;;;5053421;28;20048;-59
2021/12/09 03:59:46;;;;;;;56.97;33.95;;;-0.10;99.90;;;;;;5052479;28;20116;-59
2021/12/09 04:02:12;;;;;;;55.97;33.60;;;0.00;99.90;;;;;;5053081;28;20032;-59
2021/12/09 04:04:38;;;;;;;58.00;34.63;;;0.00;99.90;;;;;;5052383;28;20108;-59
2021/12/09 04:07:05;;;;;;;59.97;34.55;;;0.10;99.90;;;;;;5066068;28;20428;-59
2021/12/09 04:09:31;;;;;;;53.30;33.53;;;0.20;99.90;;;;;;5050602;28;20057;-59
2021/12/09 04:11:56;;;;;;;55.47;31.90;;;0.20;99.90;;;;;;5053886;28;20067;-59
2021/12/09 04:14:23;;;;;;;58.83;33.38;;;0.00;99.90;;;;;;5070765;28;20507;-59
2021/12/09 04:16:49;;;;;;;68.45;37.55;;;-0.10;99.90;;;;;;5055559;28;20029;-59
2021/12/09 04:19:15;;;;;;;68.53;36.00;;;-0.10;99.90;;;;;;5065730;28;20021;-60
2021/12/09 04:21:42;;;;;;;66.55;36.05;;;-0.20;99.90;;;;;;5055808;28;20020;-59
2021/12/09 04:24:10;;;;;;;61.58;33.80;;;-0.20;99.90;;;;;;5058797;28;20455;-59
2021/12/09 04:26:41;;;;;;;58.33;33.90;;;-0.20;99.90;;;;;;5051900;28;20025;-59
2021/12/09 04:29:09;;;;;;;62.70;36.63;;;-0.20;99.90;;;;;;5051516;28;20040;-59
2021/12/09 04:31:36;;;;;;;58.47;34.92;;;-0.10;99.90;;;;;;5051684;28;20415;-59
2021/12/09 04:34:02;;;;;;;73.60;37.13;;;-0.10;99.90;;;;;;5069295;28;20031;-59
2021/12/09 04:36:28;;;;;;;61.63;35.00;;;-0.10;99.90;;;;;;5068083;28;20050;-59
2021/12/09 04:38:54;;;;;;;63.53;34.25;;;0.00;99.90;;;;;;5069445;28;20193;-59
2021/12/09 04:41:21;;;;;;;61.33;34.65;;;0.10;99.90;;;;;;5070184;28;20017;-59
2021/12/09 04:43:47;;;;;;;53.13;32.25;;;0.20;99.90;;;;;;5070819;28;20017;-59
2021/12/09 04:46:14;;;;;;;58.53;34.72;;;0.20;99.90;;;;;;5068992;28;20035;-59
2021/12/09 04:48:40;;;;;;;63.38;35.17;;;0.10;99.90;;;;;;5068792;28;20372;-59
2021/12/09 04:51:06;;;;;;;61.50;36.92;;;0.10;99.90;;;;;;5068680;28;20035;-59
2021/12/09 04:53:32;;;;;;;63.17;36.72;;;0.10;99.90;;;;;;5067810;28;20372;-59
2021/12/09 04:55:58;;;;;;;63.70;35.50;;;-0.10;99.90;;;;;;5068703;28;20111;-59
2021/12/09 04:58:25;;;;;;;67.57;36.55;;;-0.10;99.90;;;;;;5067556;28;20550;-59
2021/12/09 05:00:53;;;;;;;66.53;37.72;;;-0.10;99.90;;;;;;5069031;28;20111;-59
2021/12/09 05:03:19;;;;;;;64.10;34.88;;;0.00;99.90;;;;;;5069364;28;20075;-59
2021/12/09 05:05:50;;;;;;;70.57;34.92;;;-0.10;99.90;;;;;;5070286;28;20530;-59
2021/12/09 05:08:18;;;;;;;57.55;33.70;;;-0.10;99.90;;;;;;5070251;28;20352;-59
2021/12/09 05:11:03;;;;;;;57.38;33.15;;;0.00;99.90;;;;;;5070406;28;20139;-59
2021/12/09 05:13:30;;;;;;;52.50;31.65;;;0.10;99.90;;;;;;5070211;28;20068;-59
2021/12/09 05:15:57;;;;;;;63.65;34.53;;;0.20;99.90;;;;;;5070128;28;20552;-59
2021/12/09 05:18:24;;;;;;;56.67;34.60;;;0.20;99.90;;;;;;5069213;28;20081;-59
2021/12/09 05:20:51;;;;;;;58.20;34.75;;;0.20;99.90;;;;;;5071343;28;20032;-59
2021/12/09 05:23:18;;;;;;;66.47;38.53;;;0.10;99.90;;;;;;5071154;28;20467;-59
2021/12/09 05:25:45;;;;;;;65.15;34.17;;;0.10;99.90;;;;;;5071004;28;20028;-59
2021/12/09 05:28:15;;;;;;;64.72;34.65;;;0.00;99.90;;;;;;5069228;28;20108;-59
2021/12/09 05:33:34;;;;;;;60.10;34.35;;;0.00;99.90;;;;;;5071586;28;20040;-59
2021/12/09 05:36:00;;;;;;;65.80;38.55;;;0.10;99.90;;;;;;5071086;28;20020;-59
2021/12/09 05:38:26;;;;;;;58.08;36.55;;;0.00;99.90;;;;;;5070642;28;20032;-59
2021/12/09 05:40:52;;;;;;;69.50;34.80;;;0.10;99.90;;;;;;5071088;28;20032;-59
2021/12/09 05:43:18;;;;;;;63.80;35.30;;;0.10;99.90;;;;;;5071363;28;20032;-59
2021/12/09 05:45:46;;;;;;;59.03;34.00;;;0.00;99.90;;;;;;5072586;28;20020;-59
2021/12/09 05:48:12;;;;;;;60.45;37.42;;;0.10;99.90;;;;;;5075145;28;20029;-59
2021/12/09 05:50:39;;;;;;;61.85;36.35;;;0.20;99.90;;;;;;5074249;28;20336;-59
2021/12/09 05:53:05;;;;;;;62.83;35.35;;;0.10;99.90;;;;;;5073475;28;20025;-60
2021/12/09 05:55:31;;;;;;;56.25;34.47;;;0.10;99.90;;;;;;5074565;28;20024;-59
2021/12/09 05:57:57;;;;;;;60.40;34.78;;;0.10;99.90;;;;;;5074372;28;20742;-59
2021/12/09 06:00:23;;;;;;;63.25;36.15;;;0.10;99.90;;;;;;5074829;28;20355;-59
2021/12/09 06:02:49;;;;;;;65.97;35.33;;;0.10;99.90;;;;;;5074758;28;20021;-59
2021/12/09 06:05:15;;;;;;;64.25;36.00;;;0.00;99.90;;;;;;5074797;28;20375;-59
2021/12/09 06:07:40;;;;;;;61.33;34.05;;;0.00;99.90;;;;;;5074412;28;20021;-59
2021/12/09 06:10:07;;;;;;;59.92;33.05;;;0.10;99.90;;;;;;5073290;28;20035;-59
2021/12/09 06:12:34;;;;;;;51.70;32.13;;;0.20;99.90;;;;;;5073217;28;20423;-59
2021/12/09 06:15:00;;;;;;;54.15;33.30;;;0.30;99.90;;;;;;5073289;28;20071;-59
2021/12/09 06:17:26;;;;;;;58.38;31.17;;;0.40;99.90;;;;;;5074159;28;20060;-59
2021/12/09 06:19:51;;;;;;;57.53;31.58;;;0.40;99.90;;;;;;5073943;28;20036;-59
2021/12/09 06:22:17;;;;;;;51.80;31.05;;;0.30;99.90;;;;;;5073194;28;20025;-59
2021/12/09 06:24:44;;;;;;;51.20;32.47;;;0.30;99.90;;;;;;5073630;28;20025;-59
2021/12/09 06:27:10;;;;;;;56.08;34.08;;;0.30;99.90;;;;;;5074183;28;20020;-59
2021/12/09 06:29:36;;;;;;;52.17;31.08;;;0.30;99.90;;;;;;5073026;28;20516;-59
2021/12/09 06:32:02;;;;;;;55.08;33.88;;;0.30;99.90;;;;;;5071208;28;20029;-59
2021/12/09 06:34:29;;;;;;;52.08;34.03;;;0.30;99.90;;;;;;5072887;28;20079;-59
2021/12/09 06:36:55;;;;;;;66.95;37.78;;;0.20;99.90;;;;;;5072631;28;20040;-59
2021/12/09 06:39:21;;;;;;;76.05;41.25;;;0.10;99.90;;;;;;5072201;28;20024;-59
2021/12/09 06:41:47;;;;;;;403.00;189.70;;;0.10;99.90;;;;;;5072886;28;20146;-59
2021/12/09 06:44:12;;;;;;;111.68;57.03;;;0.00;99.90;;;;;;5072235;28;20487;-59
2021/12/09 06:46:38;;;;;;;63.10;35.58;;;0.00;99.90;;;;;;5072829;28;20487;-59
2021/12/09 06:49:05;;;;;;;60.63;34.50;;;0.00;99.90;;;;;;5072548;28;20058;-59
2021/12/09 06:51:31;;;;;;;57.33;35.58;;;0.00;99.90;;;;;;5072763;28;20517;-59
2021/12/09 06:53:57;;;;;;;52.90;32.45;;;0.00;99.90;;;;;;5072423;28;20687;-59
2021/12/09 06:56:27;;;;;;;62.22;33.95;;;0.10;99.90;;;;;;5073210;28;20374;-59
2021/12/09 06:58:54;;;;;;;68.30;36.30;;;0.10;99.90;;;;;;5073683;28;20397;-59
2021/12/09 07:01:20;;;;;;;57.58;34.03;;;0.10;99.90;;;;;;5072013;28;20031;-59
2021/12/09 07:03:46;;;;;;;54.80;33.58;;;0.10;99.90;;;;;;5073790;28;20372;-59
2021/12/09 07:06:12;;;;;;;51.78;31.85;;;0.20;99.90;;;;;;5073111;28;20021;-60
2021/12/09 07:08:45;;;;;;;51.88;31.45;;;0.20;99.90;;;;;;5073043;28;20036;-59
2021/12/09 07:11:11;;;;;;;;;;;0.20;99.90;;;;;;5072963;28;20119;-60
2021/12/09 07:13:37;;;;;;;46.03;29.58;;;0.30;99.90;;;;;;5072940;28;19916;-59
2021/12/09 07:16:03;;;;;;;48.20;30.02;;;0.30;99.90;;;;;;5073064;28;20428;-60
2021/12/09 07:18:30;;;;;;;50.25;31.05;;;0.40;99.90;;;;;;5072310;28;20031;-59
2021/12/09 07:20:56;;;;;;;42.38;29.23;;;0.50;99.90;;;;;;5071807;28;20071;-59
2021/12/09 07:23:22;;;;;;;48.85;31.50;;;0.50;99.90;;;;;;5072157;28;20027;-60
2021/12/09 07:25:48;;;;;;;45.42;29.23;;;0.60;99.90;;;;;;5070804;28;20024;-59
2021/12/09 07:28:14;;;;;;;44.50;28.45;;;0.60;99.90;;;;;;5071973;28;20390;-59
2021/12/09 07:30:39;;;;;;;46.15;28.77;;;0.60;99.90;;;;;;5071976;28;20028;-59
2021/12/09 07:33:05;;;;;;;73.63;37.13;;;0.50;99.90;;;;;;5071799;28;20115;-60
2021/12/09 07:35:31;;;;;;;81.00;39.80;;;0.50;99.90;;;;;;5071136;28;20064;-59
2021/12/09 07:38:02;;;;;;;45.63;32.03;;;0.50;99.90;;;;;;5071409;28;20071;-59
2021/12/09 07:40:28;;;;;;;61.30;34.30;;;0.60;99.90;;;;;;5069977;28;20032;-60
2021/12/09 07:42:54;;;;;;;82.40;40.97;;;0.50;99.90;;;;;;5071087;28;20025;-59
2021/12/09 07:45:20;;;;;;;62.60;37.75;;;0.60;99.90;;;;;;5071394;28;20024;-59
2021/12/09 07:47:47;;;;;;;76.43;41.25;;;0.50;99.90;;;;;;5071195;28;20025;-59
2021/12/09 07:50:16;;;;;;;108.25;51.22;;;0.60;99.90;;;;;;5071427;28;20039;-59
2021/12/09 07:52:44;;;;;;;99.40;46.45;;;0.60;99.90;;;;;;5070131;28;20037;-59
2021/12/09 07:55:11;;;;;;;86.15;42.35;;;0.60;99.90;;;;;;5071273;28;20024;-59
2021/12/09 07:57:38;;;;;;;46.05;30.70;;;0.70;99.90;;;;;;5070090;28;20052;-59
2021/12/09 08:00:07;;;;;;;44.30;28.73;;;0.80;99.90;;;;;;5071307;28;20021;-60
2021/12/09 08:02:33;;;;;;;43.88;27.98;;;0.90;99.90;;;;;;5071323;28;20025;-59
2021/12/09 08:04:59;;;;;;;40.83;28.33;;;1.00;99.90;;;;;;5071223;28;20028;-59
2021/12/09 08:07:24;;;;;;;41.20;27.67;;;1.10;99.90;;;;;;5070865;28;20029;-59
2021/12/09 08:09:51;;;;;;;43.35;27.83;;;1.10;99.90;;;;;;5070793;28;20119;-59
2021/12/09 08:12:17;;;;;;;37.25;25.60;;;1.10;99.90;;;;;;5071271;28;20016;-59
2021/12/09 08:14:43;;;;;;;130.32;68.47;;;1.10;99.90;;;;;;5071111;28;20047;-59
2021/12/09 08:20:07;;;;;;;45.90;29.77;;;1.00;99.90;;;;;;5071042;28;20032;-59
2021/12/09 08:22:33;;;;;;;44.53;29.45;;;1.10;99.90;;;;;;5071045;28;20240;-59
2021/12/09 08:25:00;;;;;;;46.97;29.55;;;1.10;99.90;;;;;;5070639;28;20536;-60
2021/12/09 08:27:27;;;;;;;51.55;27.50;;;1.20;99.90;;;;;;5070997;28;20021;-60
2021/12/09 08:29:52;;;;;;;41.88;26.05;;;1.20;99.90;;;;;;5069800;28;20020;-60
2021/12/09 08:32:18;;;;;;;39.67;27.65;;;1.40;99.90;;;;;;5070698;28;20025;-60
2021/12/09 08:34:44;;;;;;;36.08;25.42;;;1.50;99.90;;;;;;5071112;28;20031;-60
2021/12/09 08:37:11;;;;;;;40.50;27.27;;;1.60;99.90;;;;;;5071596;28;20025;-59
2021/12/09 08:39:37;;;;;;;44.60;29.83;;;1.60;99.90;;;;;;5071415;28;20027;-59
2021/12/09 08:42:03;;;;;;;43.65;29.40;;;1.70;99.90;;;;;;5070423;28;20068;-60
2021/12/09 08:44:29;;;;;;;33.92;23.92;;;1.70;99.90;;;;;;5070482;28;20024;-59
2021/12/09 08:46:55;;;;;;;36.60;23.25;;;1.80;99.90;;;;;;5070445;28;20031;-59
2021/12/09 08:49:21;;;;;;;33.83;23.52;;;1.80;99.90;;;;;;5070568;28;20115;-59
2021/12/09 08:51:46;;;;;;;35.80;25.58;;;1.90;99.90;;;;;;5070627;28;20081;-59
2021/12/09 08:54:13;;;;;;;33.67;22.88;;;1.90;99.90;;;;;;5070233;28;20036;-59
2021/12/09 08:56:39;;;;;;;33.70;23.80;;;1.90;99.90;;;;;;5070429;28;20056;-59
2021/12/09 08:59:05;;;;;;;61.50;37.22;;;1.90;99.90;;;;;;5070351;28;20052;-59
2021/12/09 09:01:33;;;;;;;37.40;24.85;;;1.70;99.90;;;;;;5070567;28;20071;-60
2021/12/09 09:03:59;;;;;;;31.33;21.60;;;1.90;99.90;;;;;;5070104;28;20032;-60
2021/12/09 09:06:25;;;;;;;29.05;22.27;;;2.10;99.90;;;;;;5070415;28;20024;-60
2021/12/09 09:08:56;;;;;;;27.45;21.27;;;2.10;99.90;;;;;;5070178;28;20036;-60
2021/12/09 09:11:22;;;;;;;31.75;22.00;;;2.10;99.90;;;;;;5070268;28;20035;-59
2021/12/09 09:13:48;;;;;;;31.88;22.80;;;2.10;99.90;;;;;;5070105;28;20048;-60
2021/12/09 09:16:13;;;;;;;24.48;18.52;;;1.90;99.90;;;;;;5070418;28;20029;-59
2021/12/09 09:18:39;;;;;;;24.77;17.25;;;1.90;99.90;;;;;;5070425;28;20067;-59
2021/12/09 09:21:05;;;;;;;28.40;18.17;;;1.80;99.90;;;;;;5077187;28;20052;-59
2021/12/09 09:23:31;;;;;;;33.08;19.63;;;1.80;99.90;;;;;;5076758;28;20032;-59
2021/12/09 09:25:57;;;;;;;26.75;18.60;;;1.60;99.90;;;;;;5076872;28;20024;-59
2021/12/09 09:28:23;;;;;;;24.95;17.55;;;1.70;99.90;;;;;;5076728;28;20518;-59
2021/12/09 09:30:53;;;;;;;23.55;17.02;;;1.70;99.90;;;;;;5076715;28;20089;-59
2021/12/09 09:33:22;;;;;;;22.90;16.52;;;1.90;99.90;;;;;;5076548;28;20024;-59
2021/12/09 09:35:48;;;;;;;23.52;16.83;;;1.90;99.90;;;;;;5077745;28;20013;-59
2021/12/09 09:38:17;;;;;;;26.95;18.83;;;1.80;99.90;;;;;;5077577;28;20039;-59
2021/12/09 09:40:52;;;;;;;23.20;16.48;;;1.90;99.90;;;;;;5078114;28;20020;-59
2021/12/09 09:43:54;;;;;;;29.15;17.08;;;1.90;99.90;;;;;;5077820;28;20048;-59
2021/12/09 09:46:22;;;;;;;25.35;15.50;;;2.00;99.90;;;;;;5077722;28;20369;-59
2021/12/09 09:48:50;;;;;;;25.08;17.38;;;2.00;99.90;;;;;;5076512;28;20563;-59
2021/12/09 09:51:19;;;;;;;22.65;16.48;;;1.90;99.90;;;;;;5076296;28;20040;-59
2021/12/09 09:53:45;;;;;;;29.95;19.92;;;1.80;99.90;;;;;;5077971;28;20177;-59
2021/12/09 09:56:15;;;;;;;25.17;17.17;;;1.80;99.90;;;;;;5077699;28;20039;-60
2021/12/09 09:58:44;;;;;;;22.80;17.75;;;1.80;99.90;;;;;;5077830;28;20035;-60
2021/12/09 10:01:10;;;;;;;26.25;17.52;;;1.90;99.90;;;;;;5077657;28;20035;-60
2021/12/09 10:03:44;;;;;;;108.57;41.42;;;1.90;99.90;;;;;;5047247;28;20045;-60
2021/12/09 10:06:12;;;;;;;33.72;19.48;;;1.80;99.90;;;;;;5045697;28;20029;-60
2021/12/09 10:08:38;;;;;;;31.20;20.10;;;1.80;99.90;;;;;;5046309;28;20034;-60
2021/12/09 10:11:05;;;;;;;24.05;17.35;;;1.90;99.90;;;;;;5046573;28;20559;-60
2021/12/09 10:13:33;;;;;;;25.00;19.02;;;1.90;99.90;;;;;;5045138;28;20140;-59
2021/12/09 10:16:00;;;;;;;30.33;19.70;;;1.90;99.90;;;;;;5046831;28;20025;-60
2021/12/09 10:18:37;;;;;;;28.27;18.05;;;1.50;99.90;;;;;;5045122;28;20063;-60
2021/12/09 10:21:05;;;;;;;27.88;19.02;;;1.60;99.90;;;;;;5046426;28;20025;-60
2021/12/09 10:23:42;;;;;;;26.77;18.05;;;1.80;99.90;;;;;;5046336;28;20045;-60
2021/12/09 10:26:41;;;;;;;27.60;18.63;;;1.90;99.90;;;;;;5046890;28;20029;-60
2021/12/09 10:29:17;;;;;;;25.95;17.92;;;1.80;99.90;;;;;;5047018;28;20342;-60
2021/12/09 10:31:53;;;;;;;29.80;18.95;;;1.90;99.90;;;;;;5042554;28;20044;-60
2021/12/09 10:36:59;;;;;;;28.25;19.55;;;1.90;99.90;;;;;;5043962;28;20033;-60
2021/12/09 10:39:36;;;;;;;27.58;17.15;;;1.90;99.90;;;;;;5042417;28;20033;-60
2021/12/09 10:42:17;;;;;;;28.23;19.80;;;2.10;99.90;;;;;;5043110;28;20033;-59
2021/12/09 10:45:03;;;;;;;29.75;19.15;;;2.20;99.90;;;;;;5043295;28;20031;-60
2021/12/09 10:55:50;;;;;;;31.40;19.13;;;2.40;99.90;;;;;;5042510;28;20053;-60
2021/12/09 10:58:19;;;;;;;29.42;18.98;;;2.50;99.90;;;;;;5043148;28;20048;-60
2021/12/09 11:00:54;;;;;;;26.20;18.70;;;2.60;99.90;;;;;;5052295;28;20109;-60
2021/12/09 11:03:24;;;;;;;25.67;18.35;;;2.70;99.90;;;;;;5053535;28;20013;-60
2021/12/09 11:06:01;;;;;;;31.83;20.88;;;2.60;99.90;;;;;;5053554;28;20112;-60
2021/12/09 11:08:31;;;;;;;28.42;20.05;;;2.60;99.90;;;;;;5052378;28;20021;-60
2021/12/09 11:11:12;;;;;;;29.50;20.38;;;2.60;99.90;;;;;;5053166;28;20025;-60
2021/12/09 11:13:48;;;;;;;25.92;17.92;;;2.60;99.90;;;;;;5051777;28;20131;-60
2021/12/09 11:16:40;;;;;;;26.55;18.60;;;2.60;99.90;;;;;;5054587;28;20466;-60
2021/12/09 11:19:34;;;;;;;32.72;18.90;;;2.70;99.90;;;;;;5071538;28;20078;-60
2021/12/09 11:22:03;;;;;;;32.65;20.88;;;2.40;99.90;;;;;;5073069;28;20021;-60
2021/12/09 11:24:35;;;;;;;27.70;19.42;;;2.50;99.90;;;;;;5073447;28;20379;-60
2021/12/09 11:27:07;;;;;;;33.58;21.55;;;2.80;99.90;;;;;;5059296;28;20229;-60
2021/12/09 11:29:46;;;;;;;26.80;19.50;;;3.00;99.90;;;;;;5041746;28;20072;-60
2021/12/09 11:32:32;;;;;;;26.23;18.60;;;3.00;99.90;;;;;;5042074;28;20127;-60
2021/12/09 11:35:12;;;;;;;27.65;19.55;;;3.00;99.90;;;;;;5041735;28;20044;-60
2021/12/09 11:37:51;;;;;;;26.10;18.05;;;3.10;99.90;;;;;;5042113;28;20048;-60
2021/12/09 11:40:27;;;;;;;27.80;20.20;;;3.10;99.90;;;;;;5042954;28;20021;-60
2021/12/09 11:42:58;;;;;;;29.67;21.70;;;3.10;99.90;;;;;;5040869;28;20036;-60
2021/12/09 11:45:30;;;;;;;29.55;20.40;;;3.10;99.90;;;;;;5042049;28;20029;-60
2021/12/09 11:47:57;;;;;;;30.40;21.58;;;3.00;99.90;;;;;;5041427;28;20120;-60
2021/12/09 11:50:26;;;;;;;31.45;21.42;;;3.00;99.90;;;;;;5041575;28;20071;-60
2021/12/09 11:52:54;;;;;;;27.65;19.90;;;3.00;99.90;;;;;;5041638;28;20041;-60
2021/12/09 11:55:26;;;;;;;29.35;21.10;;;3.00;99.90;;;;;;5041808;28;20059;-60
2021/12/09 11:57:57;;;;;;;31.95;21.55;;;2.90;99.90;;;;;;5041995;28;20044;-60
2021/12/09 12:12:00;;;;;;;35.33;22.90;;;3.00;99.90;;;;;;5041349;28;20102;-60
2021/12/09 12:14:34;;;;;;;36.63;23.90;;;3.00;99.90;;;;;;5040875;28;20574;-60
2021/12/09 12:17:17;;;;;;;36.60;22.40;;;2.90;99.90;;;;;;5040262;28;20467;-60
2021/12/09 12:20:44;;;;;;;37.80;26.13;;;2.90;99.90;;;;;;5041527;28;20029;-60
2021/12/09 12:23:21;;;;;;;27.90;20.20;;;3.00;99.90;;;;;;5045162;28;20032;-60
2021/12/09 12:26:01;;;;;;;35.80;24.88;;;3.00;99.90;;;;;;5051157;28;20091;-60
2021/12/09 12:37:46;;;;;;;28.92;21.02;;;2.50;99.90;;;;;;5051815;28;20029;-60
2021/12/09 12:40:15;;;;;;;27.88;19.65;;;2.50;99.90;;;;;;5051045;28;20396;-60
2021/12/09 12:45:42;;;;;;;28.40;20.92;;;2.40;99.90;;;;;;5050492;28;20036;-60
2021/12/09 12:51:29;;;;;;;29.45;19.88;;;2.30;99.90;;;;;;5028298;28;20111;-60
2021/12/09 12:54:02;;;;;;;29.83;19.67;;;2.50;99.90;;;;;;5034334;28;20033;-60
2021/12/09 12:56:46;;;;;;;130.48;45.67;;;2.50;99.90;;;;;;5051514;28;20100;-60
2021/12/09 12:59:14;;;;;;;29.88;20.67;;;2.40;99.90;;;;;;5051395;28;20032;-60
2021/12/09 13:01:47;;;;;;;24.98;17.70;;;2.50;99.90;;;;;;5051690;28;20108;-59
2021/12/09 13:05:25;;;;;;;27.23;20.20;;;2.50;99.90;;;;;;5051654;28;20028;-60
2021/12/09 13:11:06;;;;;;;24.02;18.80;;;2.30;99.90;;;;;;5060097;28;20109;-60
2021/12/09 13:17:21;;;;;;;21.25;16.88;;;2.50;99.90;;;;;;5048461;28;20047;-60
2021/12/09 13:20:04;;;;;;;21.23;16.55;;;2.50;99.90;;;;;;5042445;28;20041;-60
2021/12/09 13:22:37;;;;;;;20.90;15.75;;;2.50;99.90;;;;;;5049323;28;20055;-60
2021/12/09 13:25:22;;;;;;;23.48;16.85;;;2.50;99.90;;;;;;5059743;28;20048;-60
2021/12/09 13:28:00;;;;;;;19.85;15.75;;;2.50;99.90;;;;;;5060777;28;20029;-60
2021/12/09 13:49:58;;;;;;;17.08;13.48;;;2.20;99.90;;;;;;5059995;28;20028;-60
2021/12/09 13:55:08;;;;;;;16.42;13.70;;;2.30;99.90;;;;;;5060362;28;20108;-59
2021/12/09 13:57:36;;;;;;;14.45;11.57;;;2.40;99.90;;;;;;5060063;28;20101;-60